Time;durP1;ratioP1;P1;durP2;ratioP2;P2;SDS_P1;SDS_P2;PMS_P1;PMS_P2;Temp;Humidity;BMP_temperature;BMP_pressure;BME280_temperature;BME280_humidity;BME280_pressure;Samples;Min_cycle;Max_cycle;Signal;HPM_P1;HPM_P2
2024/04/13 00:00:40;;;;;;;10.23;5.70;;;12.70;99.90;;;;;;5362637;26;20274;-65
2024/04/13 00:03:05;;;;;;;6.60;5.50;;;12.70;99.90;;;;;;5345570;26;20230;-65
2024/04/13 00:05:31;;;;;;;6.57;5.40;;;12.60;99.90;;;;;;5328837;26;20346;-66
2024/04/13 00:07:57;;;;;;;10.43;6.03;;;12.60;99.90;;;;;;5320468;26;20712;-65
2024/04/13 00:10:25;;;;;;;9.20;5.13;;;12.50;99.90;;;;;;5335867;26;20232;-65
2024/04/13 00:12:51;;;;;;;6.40;5.33;;;12.30;99.90;;;;;;5312779;26;20453;-65
2024/04/13 00:15:17;;;;;;;7.97;5.53;;;12.20;99.90;;;;;;5319776;26;20993;-65
2024/04/13 00:17:43;;;;;;;6.03;5.53;;;12.10;99.90;;;;;;5317433;26;20841;-65
2024/04/13 00:20:09;;;;;;;7.10;5.47;;;12.10;99.90;;;;;;5332194;26;20222;-65
2024/04/13 00:22:36;;;;;;;6.23;5.50;;;12.00;99.90;;;;;;5333464;26;20986;-65
2024/04/13 00:25:02;;;;;;;6.10;4.93;;;11.90;99.90;;;;;;5326548;26;21049;-66
2024/04/13 00:27:28;;;;;;;6.70;6.17;;;11.90;99.90;;;;;;5312907;26;20864;-65
2024/04/13 00:29:54;;;;;;;6.83;5.10;;;11.90;99.90;;;;;;5342170;26;20475;-65
2024/04/13 00:32:19;;;;;;;8.40;5.30;;;11.90;99.90;;;;;;5315315;26;20586;-66
2024/04/13 00:34:47;;;;;;;6.27;5.40;;;11.90;99.90;;;;;;5341509;26;20280;-65
2024/04/13 00:37:13;;;;;;;8.00;5.83;;;11.90;99.90;;;;;;5316761;26;20289;-65
2024/04/13 00:39:38;;;;;;;18.87;9.10;;;11.80;99.90;;;;;;5311194;26;20457;-65
2024/04/13 00:42:05;;;;;;;12.13;9.70;;;11.70;99.90;;;;;;5332533;26;20513;-65
2024/04/13 00:44:30;;;;;;;8.20;5.67;;;11.70;99.90;;;;;;5332539;26;20332;-65
2024/04/13 00:47:04;;;;;;;4.80;4.40;;;11.70;99.90;;;;;;5315313;26;20464;-66
2024/04/13 00:49:31;;;;;;;9.10;5.30;;;11.80;99.90;;;;;;5342686;26;20221;-65
2024/04/13 00:51:58;;;;;;;7.13;5.43;;;11.80;99.90;;;;;;5333057;26;20516;-65
2024/04/13 00:54:27;;;;;;;6.60;5.33;;;11.70;99.90;;;;;;5328504;26;20512;-65
2024/04/13 00:56:53;;;;;;;7.37;6.00;;;11.70;99.90;;;;;;5333399;26;20526;-66
2024/04/13 00:59:22;;;;;;;11.50;6.17;;;11.80;99.90;;;;;;5341327;26;20453;-65
2024/04/13 01:01:48;;;;;;;5.80;5.10;;;11.80;99.90;;;;;;5335406;26;20454;-65
2024/04/13 01:04:15;;;;;;;5.30;4.80;;;11.70;99.90;;;;;;5342637;26;20510;-65
2024/04/13 01:06:42;;;;;;;7.77;4.63;;;11.60;99.90;;;;;;5338304;26;21110;-65
2024/04/13 01:09:07;;;;;;;11.10;4.70;;;11.70;99.90;;;;;;5333078;26;20455;-65
2024/04/13 01:11:34;;;;;;;8.27;5.07;;;11.60;99.90;;;;;;5310422;27;20479;-66
2024/04/13 01:14:01;;;;;;;5.70;5.10;;;11.60;99.90;;;;;;5309963;27;20277;-65
2024/04/13 01:16:27;;;;;;;6.20;5.60;;;11.60;99.90;;;;;;5311359;26;21021;-65
2024/04/13 01:18:53;;;;;;;5.70;5.20;;;11.60;99.90;;;;;;5326273;26;20448;-65
2024/04/13 01:21:19;;;;;;;5.50;5.10;;;11.60;99.90;;;;;;5343296;26;20443;-65
2024/04/13 01:23:46;;;;;;;5.47;4.37;;;11.60;99.90;;;;;;5338001;26;20544;-66
2024/04/13 01:26:12;;;;;;;5.90;5.40;;;11.50;99.90;;;;;;5313569;26;20298;-64
2024/04/13 01:28:37;;;;;;;6.53;4.90;;;11.60;99.90;;;;;;5315230;26;20521;-65
2024/04/13 01:31:03;;;;;;;5.50;5.10;;;11.50;99.90;;;;;;5313648;26;20340;-65
2024/04/13 01:33:29;;;;;;;5.60;5.10;;;11.40;99.90;;;;;;5314269;26;20222;-66
2024/04/13 01:36:01;;;;;;;7.30;4.60;;;11.40;99.90;;;;;;5321923;26;20523;-65
2024/04/13 01:38:27;;;;;;;9.10;5.23;;;11.30;99.90;;;;;;5342636;26;20281;-65
2024/04/13 01:40:53;;;;;;;8.70;5.30;;;11.30;99.90;;;;;;5338452;26;20460;-65
2024/04/13 01:43:18;;;;;;;7.03;5.43;;;11.20;99.90;;;;;;5314068;26;20520;-65
2024/04/13 01:45:44;;;;;;;7.53;5.47;;;11.20;99.90;;;;;;5326488;26;20230;-66
2024/04/13 01:48:10;;;;;;;5.93;5.33;;;11.20;99.90;;;;;;5319303;26;20269;-65
2024/04/13 01:50:36;;;;;;;5.63;5.13;;;11.30;99.90;;;;;;5354506;26;20764;-65
2024/04/13 01:53:02;;;;;;;6.53;5.60;;;11.30;99.90;;;;;;5340186;26;20452;-65
2024/04/13 01:55:27;;;;;;;7.37;6.17;;;11.20;99.90;;;;;;5333164;26;20584;-65
2024/04/13 01:57:53;;;;;;;7.23;5.40;;;11.20;99.90;;;;;;5334136;26;20260;-66
2024/04/13 02:00:20;;;;;;;8.37;5.70;;;11.20;99.90;;;;;;5317390;26;20222;-65
2024/04/13 02:02:46;;;;;;;6.70;5.57;;;11.20;99.90;;;;;;5335169;26;20230;-65
2024/04/13 02:05:11;;;;;;;5.60;5.10;;;11.20;99.90;;;;;;5321718;26;21046;-65
2024/04/13 02:07:37;;;;;;;7.17;5.67;;;11.10;99.90;;;;;;5311821;26;20265;-65
2024/04/13 02:10:03;;;;;;;5.50;4.97;;;11.10;99.90;;;;;;5319692;26;20222;-65
2024/04/13 02:12:29;;;;;;;9.40;5.73;;;11.10;99.90;;;;;;5313709;26;20273;-65
2024/04/13 02:14:57;;;;;;;5.60;5.00;;;11.10;99.90;;;;;;5323889;26;20468;-65
2024/04/13 02:17:23;;;;;;;8.53;6.00;;;11.10;99.90;;;;;;5318076;26;20461;-65
2024/04/13 02:19:48;;;;;;;8.30;6.60;;;11.00;99.90;;;;;;5320281;26;20513;-64
2024/04/13 02:22:15;;;;;;;6.23;5.63;;;11.10;99.90;;;;;;5313123;26;20272;-65
2024/04/13 02:24:43;;;;;;;5.60;5.10;;;11.10;99.90;;;;;;5317229;26;20221;-64
2024/04/13 02:27:09;;;;;;;7.33;5.50;;;11.10;99.90;;;;;;5339956;26;20852;-64
2024/04/13 02:29:35;;;;;;;7.33;5.30;;;11.10;99.90;;;;;;5312828;26;20460;-64
2024/04/13 02:32:00;;;;;;;7.07;6.13;;;11.10;99.90;;;;;;5335812;26;20458;-65
2024/04/13 02:34:26;;;;;;;12.33;5.67;;;11.10;99.90;;;;;;5321761;26;20698;-66
2024/04/13 02:36:52;;;;;;;8.00;5.73;;;11.00;99.90;;;;;;5328417;26;20300;-65
2024/04/13 02:39:18;;;;;;;5.80;5.20;;;11.10;99.90;;;;;;5382195;26;20204;-65
2024/04/13 02:41:44;;;;;;;8.17;5.97;;;11.00;99.90;;;;;;5341164;26;20461;-65
2024/04/13 02:44:10;;;;;;;9.40;6.07;;;11.10;99.90;;;;;;5317890;26;20795;-65
2024/04/13 02:46:35;;;;;;;8.57;5.47;;;11.10;99.90;;;;;;5311067;26;20592;-66
2024/04/13 02:49:00;;;;;;;5.97;5.37;;;11.10;99.90;;;;;;5316721;26;20225;-65
2024/04/13 02:51:26;;;;;;;8.07;5.80;;;11.00;99.90;;;;;;5320362;26;20218;-65
2024/04/13 02:53:51;;;;;;;11.47;5.93;;;11.00;99.90;;;;;;5330750;26;20221;-64
2024/04/13 02:56:17;;;;;;;5.83;5.33;;;11.00;99.90;;;;;;5334191;26;20658;-64
2024/04/13 02:58:43;;;;;;;6.17;5.40;;;11.10;99.90;;;;;;5336590;26;20221;-66
2024/04/13 03:01:08;;;;;;;11.97;6.07;;;11.10;99.90;;;;;;5319992;26;20230;-65
2024/04/13 03:03:34;;;;;;;7.77;6.20;;;11.20;99.90;;;;;;5317724;26;20264;-65
2024/04/13 03:06:07;;;;;;;11.43;6.30;;;11.20;99.90;;;;;;5352139;26;20225;-65
2024/04/13 03:08:32;;;;;;;9.93;6.70;;;11.20;99.90;;;;;;5325347;26;20219;-65
2024/04/13 03:10:59;;;;;;;7.73;6.07;;;11.10;99.90;;;;;;5318507;26;20512;-65
2024/04/13 03:13:25;;;;;;;8.90;6.40;;;11.00;99.90;;;;;;5314398;26;20716;-65
2024/04/13 03:16:12;;;;;;;9.20;7.27;;;11.00;99.90;;;;;;5333098;26;20465;-65
2024/04/13 03:18:39;;;;;;;14.10;7.00;;;10.90;99.90;;;;;;5312689;26;20477;-66
2024/04/13 03:21:08;;;;;;;7.17;6.43;;;10.90;99.90;;;;;;5316972;26;20457;-65
2024/04/13 03:23:35;;;;;;;6.70;6.10;;;10.90;99.90;;;;;;5317631;26;20472;-65
2024/04/13 03:26:00;;;;;;;9.10;6.67;;;10.90;99.90;;;;;;5318148;26;20465;-66
2024/04/13 03:28:28;;;;;;;15.70;7.20;;;10.80;99.90;;;;;;5330336;26;20516;-65
2024/04/13 03:30:54;;;;;;;7.00;5.53;;;10.80;99.90;;;;;;5312705;26;20558;-65
2024/04/13 03:33:19;;;;;;;8.27;7.03;;;10.70;99.90;;;;;;5325558;26;20528;-66
2024/04/13 03:35:45;;;;;;;7.20;6.13;;;10.70;99.90;;;;;;5321191;26;20226;-65
2024/04/13 03:38:11;;;;;;;6.97;6.37;;;10.70;99.90;;;;;;5322887;26;20764;-65
2024/04/13 03:40:38;;;;;;;6.33;5.83;;;10.60;99.90;;;;;;5330508;26;20226;-65
2024/04/13 03:43:04;;;;;;;9.07;6.13;;;10.60;99.90;;;;;;5318527;26;20513;-64
2024/04/13 03:45:29;;;;;;;10.70;5.93;;;10.60;99.90;;;;;;5314538;26;20272;-65
2024/04/13 03:47:56;;;;;;;7.20;6.60;;;10.60;99.90;;;;;;5313068;26;20238;-65
2024/04/13 03:50:22;;;;;;;9.93;6.00;;;10.60;99.90;;;;;;5316828;26;20265;-65
2024/04/13 03:52:47;;;;;;;7.53;6.80;;;10.50;99.90;;;;;;5322875;26;20532;-65
2024/04/13 03:55:13;;;;;;;12.90;5.90;;;10.50;99.90;;;;;;5318908;26;20506;-65
2024/04/13 03:57:38;;;;;;;8.70;5.83;;;10.60;99.90;;;;;;5312922;26;20629;-64
2024/04/13 04:00:06;;;;;;;13.70;10.40;;;10.40;99.90;;;;;;5318141;26;20268;-67
2024/04/13 04:02:32;;;;;;;9.77;8.50;;;10.30;99.90;;;;;;5311831;26;20311;-66
2024/04/13 04:04:58;;;;;;;10.03;5.97;;;10.30;99.90;;;;;;5336377;26;20518;-66
2024/04/13 04:07:23;;;;;;;8.17;6.37;;;10.30;99.90;;;;;;5323693;26;21171;-65
2024/04/13 04:09:49;;;;;;;7.20;6.60;;;10.30;99.90;;;;;;5344772;26;20236;-65
2024/04/13 04:12:14;;;;;;;8.13;6.50;;;10.30;99.90;;;;;;5317549;26;20237;-66
2024/04/13 04:14:40;;;;;;;6.07;5.40;;;10.30;99.90;;;;;;5340840;26;20275;-65
2024/04/13 04:17:05;;;;;;;5.93;5.43;;;10.30;99.90;;;;;;5316036;26;20722;-65
2024/04/13 04:19:32;;;;;;;8.07;7.23;;;10.30;99.90;;;;;;5334962;26;20222;-66
2024/04/13 04:21:57;;;;;;;6.00;5.40;;;10.30;99.90;;;;;;5315623;26;20731;-67
2024/04/13 04:24:23;;;;;;;7.93;6.00;;;10.30;99.90;;;;;;5330617;26;20464;-64
2024/04/13 04:26:49;;;;;;;8.37;5.40;;;10.30;99.90;;;;;;5308600;26;20242;-65
2024/04/13 04:29:15;;;;;;;6.67;5.80;;;10.30;99.90;;;;;;5330312;26;20520;-65
2024/04/13 04:31:41;;;;;;;6.60;5.63;;;10.30;99.90;;;;;;5336643;26;20280;-65
2024/04/13 04:34:07;;;;;;;10.80;6.20;;;10.20;99.90;;;;;;5330722;26;20282;-65
2024/04/13 04:36:33;;;;;;;6.47;5.83;;;10.20;99.90;;;;;;5342947;26;20475;-65
2024/04/13 04:38:59;;;;;;;6.53;5.30;;;10.20;99.90;;;;;;5339964;26;20456;-66
2024/04/13 04:41:26;;;;;;;7.57;5.10;;;10.20;99.90;;;;;;5330424;26;20263;-65
2024/04/13 04:43:52;;;;;;;7.40;5.50;;;10.20;99.90;;;;;;5323701;26;20580;-65
2024/04/13 04:46:18;;;;;;;5.50;5.00;;;10.30;99.90;;;;;;5326836;26;20880;-66
2024/04/13 04:48:48;;;;;;;9.10;5.37;;;10.30;99.90;;;;;;5329660;26;20237;-65
2024/04/13 04:51:13;;;;;;;5.37;4.87;;;10.30;99.90;;;;;;5316314;26;20234;-65
2024/04/13 04:53:39;;;;;;;5.57;5.07;;;10.30;99.90;;;;;;5340341;26;20587;-65
2024/04/13 04:56:04;;;;;;;6.17;5.57;;;10.30;99.90;;;;;;5324806;26;20740;-64
2024/04/13 04:58:30;;;;;;;8.43;5.17;;;10.20;99.90;;;;;;5327492;26;20229;-64
2024/04/13 05:00:55;;;;;;;5.37;4.87;;;10.20;99.90;;;;;;5328007;26;20233;-65
2024/04/13 05:03:21;;;;;;;6.50;4.90;;;10.20;99.90;;;;;;5341963;26;20282;-65
2024/04/13 05:05:46;;;;;;;6.00;5.40;;;10.20;99.90;;;;;;5331690;26;20961;-65
2024/04/13 05:08:12;;;;;;;7.00;5.73;;;10.40;99.90;;;;;;5329310;26;20284;-65
2024/04/13 05:10:37;;;;;;;7.43;5.87;;;10.40;99.90;;;;;;5314474;26;20245;-65
2024/04/13 05:13:03;;;;;;;5.97;4.93;;;10.40;99.90;;;;;;5326228;26;20234;-64
2024/04/13 05:15:29;;;;;;;13.17;6.33;;;10.50;99.90;;;;;;5322960;26;20281;-65
2024/04/13 05:17:55;;;;;;;10.40;7.23;;;10.50;99.90;;;;;;5329078;26;20464;-65
2024/04/13 05:20:21;;;;;;;7.47;6.00;;;10.60;99.90;;;;;;5323376;26;20619;-66
2024/04/13 05:22:47;;;;;;;8.37;6.00;;;10.60;99.90;;;;;;5339347;26;20246;-66
2024/04/13 05:25:12;;;;;;;7.00;5.20;;;10.60;99.90;;;;;;5365017;26;20522;-65
2024/04/13 05:27:39;;;;;;;13.40;6.17;;;10.70;99.90;;;;;;5322170;26;20229;-65
2024/04/13 05:30:06;;;;;;;7.63;5.80;;;10.70;99.90;;;;;;5334273;26;20234;-65
2024/04/13 05:32:33;;;;;;;7.87;5.50;;;10.70;99.90;;;;;;5337886;26;20467;-66
2024/04/13 05:34:58;;;;;;;11.33;7.80;;;10.70;99.90;;;;;;5321386;26;20558;-65
2024/04/13 05:37:24;;;;;;;6.60;6.00;;;10.70;99.90;;;;;;5312247;26;20449;-66
2024/04/13 05:39:51;;;;;;;6.73;6.10;;;10.70;99.90;;;;;;5322856;26;20362;-65
2024/04/13 05:42:16;;;;;;;8.10;5.17;;;10.80;99.90;;;;;;5332199;26;20225;-67
2024/04/13 05:44:42;;;;;;;7.03;6.00;;;11.00;99.90;;;;;;5347823;26;20490;-65
2024/04/13 05:47:07;;;;;;;7.13;5.20;;;11.20;99.90;;;;;;5345733;26;20225;-66
2024/04/13 05:49:33;;;;;;;7.27;5.67;;;11.40;99.90;;;;;;5322813;26;20261;-66
2024/04/13 05:51:59;;;;;;;7.27;5.40;;;11.60;99.90;;;;;;5316568;26;20245;-66
2024/04/13 05:54:25;;;;;;;7.20;5.43;;;11.80;99.90;;;;;;5347399;26;20260;-66
2024/04/13 05:56:53;;;;;;;6.93;6.13;;;12.00;99.90;;;;;;5322726;26;20254;-66
2024/04/13 05:59:19;;;;;;;9.53;6.10;;;12.20;99.90;;;;;;5318315;26;20221;-66
2024/04/13 06:01:44;;;;;;;10.07;7.80;;;12.40;99.90;;;;;;5344033;26;20467;-66
2024/04/13 06:04:10;;;;;;;6.63;6.13;;;12.40;99.90;;;;;;5341915;26;20528;-66
2024/04/13 06:06:36;;;;;;;8.83;6.90;;;12.70;99.90;;;;;;5343424;26;20323;-65
2024/04/13 06:09:02;;;;;;;8.80;6.83;;;13.00;99.90;;;;;;5347245;26;20322;-65
2024/04/13 06:11:28;;;;;;;7.50;6.70;;;13.30;99.90;;;;;;5325411;26;20467;-65
2024/04/13 06:13:53;;;;;;;7.20;6.47;;;13.40;99.90;;;;;;5317169;26;20469;-66
2024/04/13 06:16:19;;;;;;;8.10;6.47;;;13.50;99.90;;;;;;5322549;26;20581;-65
2024/04/13 06:18:44;;;;;;;14.93;6.67;;;13.50;99.90;;;;;;5332448;26;20569;-66
2024/04/13 06:21:10;;;;;;;10.00;9.00;;;13.70;99.90;;;;;;5319111;26;20222;-67
2024/04/13 06:23:35;;;;;;;8.93;7.07;;;13.70;99.90;;;;;;5336122;26;20293;-65
2024/04/13 06:26:01;;;;;;;9.40;6.40;;;13.60;99.90;;;;;;5336489;26;20242;-66
2024/04/13 06:28:26;;;;;;;7.37;6.67;;;13.60;99.90;;;;;;5311784;27;20214;-66
2024/04/13 06:30:52;;;;;;;9.83;7.30;;;13.70;99.90;;;;;;5330999;26;20305;-65
2024/04/13 06:33:18;;;;;;;11.57;8.10;;;13.80;99.90;;;;;;5335889;26;20272;-66
2024/04/13 06:35:50;;;;;;;6.63;6.00;;;14.10;99.90;;;;;;5327952;26;20757;-66
2024/04/13 06:38:20;;;;;;;7.37;6.67;;;14.40;99.90;;;;;;5353341;26;20358;-66
2024/04/13 06:40:46;;;;;;;11.47;7.17;;;14.80;99.90;;;;;;5324257;26;20465;-66
2024/04/13 06:43:11;;;;;;;7.23;6.50;;;14.90;99.90;;;;;;5321935;26;20547;-67
2024/04/13 06:45:38;;;;;;;7.20;6.60;;;15.20;99.90;;;;;;5324552;26;20339;-65
2024/04/13 06:48:04;;;;;;;7.73;6.30;;;15.30;99.90;;;;;;5323024;26;20719;-66
2024/04/13 06:50:30;;;;;;;9.33;6.70;;;15.40;99.90;;;;;;5323487;26;20472;-66
2024/04/13 06:52:56;;;;;;;7.60;6.90;;;15.60;99.90;;;;;;5312419;26;20452;-66
2024/04/13 06:55:21;;;;;;;6.97;6.37;;;15.80;99.90;;;;;;5378285;26;20262;-66
2024/04/13 06:57:47;;;;;;;7.60;5.80;;;16.00;99.90;;;;;;5336221;26;20230;-67
2024/04/13 07:00:12;;;;;;;6.77;6.17;;;16.30;99.90;;;;;;5321929;26;20224;-66
2024/04/13 07:02:38;;;;;;;8.03;7.00;;;16.40;99.90;;;;;;5353593;26;20577;-66
2024/04/13 07:05:04;;;;;;;6.93;6.33;;;16.70;99.90;;;;;;5343689;26;20663;-65
2024/04/13 07:07:29;;;;;;;8.40;6.63;;;17.00;99.90;;;;;;5312306;26;20273;-66
2024/04/13 07:09:55;;;;;;;7.40;5.93;;;17.10;99.90;;;;;;5314043;26;20460;-65
2024/04/13 07:12:21;;;;;;;6.57;6.07;;;17.40;99.90;;;;;;5312706;26;20229;-66
2024/04/13 07:14:46;;;;;;;7.93;6.27;;;17.50;99.90;;;;;;5312187;27;20316;-65
2024/04/13 07:17:12;;;;;;;5.93;5.53;;;17.60;99.90;;;;;;5320737;26;20218;-66
2024/04/13 07:19:37;;;;;;;8.13;5.30;;;17.90;99.90;;;;;;5342594;26;20233;-66
2024/04/13 07:22:03;;;;;;;7.93;4.83;;;18.10;99.90;;;;;;5339481;26;20224;-66
2024/04/13 07:24:29;;;;;;;6.57;5.90;;;18.40;99.90;;;;;;5346201;26;20630;-65
2024/04/13 07:26:55;;;;;;;5.20;4.70;;;18.80;99.90;;;;;;5313676;26;20276;-66
2024/04/13 07:29:20;;;;;;;5.20;4.80;;;18.90;99.90;;;;;;5312241;26;20457;-65
2024/04/13 07:31:46;;;;;;;6.03;5.53;;;19.20;99.90;;;;;;5314459;26;20279;-67
2024/04/13 07:34:11;;;;;;;6.93;6.07;;;19.20;99.90;;;;;;5335267;26;20225;-66
2024/04/13 07:36:37;;;;;;;8.73;4.83;;;19.20;99.90;;;;;;5328030;26;20231;-66
2024/04/13 07:39:02;;;;;;;6.40;5.80;;;19.30;99.90;;;;;;5328925;26;20229;-65
2024/04/13 07:41:28;;;;;;;4.83;4.43;;;19.30;99.90;;;;;;5318171;26;20226;-65
2024/04/13 07:43:53;;;;;;;9.47;5.27;;;19.40;99.90;;;;;;5311532;26;20639;-67
2024/04/13 07:46:21;;;;;;;7.37;4.83;;;19.60;99.90;;;;;;5343037;26;20710;-66
2024/04/13 07:48:47;;;;;;;5.10;4.70;;;19.80;99.90;;;;;;5342818;26;20221;-66
2024/04/13 07:51:12;;;;;;;9.40;5.33;;;19.80;99.90;;;;;;5351013;26;20514;-66
2024/04/13 07:53:38;;;;;;;8.13;5.37;;;19.90;99.90;;;;;;5348823;26;20560;-67
2024/04/13 07:56:04;;;;;;;5.30;4.60;;;20.10;99.90;;;;;;5337953;22;20260;-67
2024/04/13 07:58:29;;;;;;;7.00;4.93;;;20.40;99.40;;;;;;5347353;26;20245;-67
2024/04/13 08:00:55;;;;;;;6.23;4.47;;;20.20;98.70;;;;;;5344988;26;20455;-67
2024/04/13 08:03:22;;;;;;;5.90;4.47;;;20.20;99.00;;;;;;5345062;26;20292;-67
2024/04/13 08:05:48;;;;;;;6.87;4.33;;;20.60;97.80;;;;;;5343088;26;20583;-67
2024/04/13 08:08:13;;;;;;;5.60;4.60;;;21.00;97.50;;;;;;5325551;26;20480;-67
2024/04/13 08:10:39;;;;;;;5.27;4.47;;;21.20;96.50;;;;;;5350072;26;20262;-67
2024/04/13 08:13:05;;;;;;;7.60;4.37;;;21.30;95.80;;;;;;5381370;26;20220;-68
2024/04/13 08:15:31;;;;;;;5.97;4.73;;;21.60;95.10;;;;;;5363995;26;20538;-67
2024/04/13 08:17:57;;;;;;;4.53;4.13;;;21.80;93.60;;;;;;5322150;26;20465;-68
2024/04/13 08:20:22;;;;;;;6.47;4.43;;;21.90;93.80;;;;;;5332320;26;20237;-68
2024/04/13 08:22:48;;;;;;;4.90;3.90;;;22.00;92.60;;;;;;5344230;26;20270;-68
2024/04/13 08:25:13;;;;;;;4.50;4.20;;;22.10;92.30;;;;;;5364545;26;20238;-68
2024/04/13 08:27:39;;;;;;;3.90;3.40;;;22.20;91.30;;;;;;5321292;26;20264;-67
2024/04/13 08:30:05;;;;;;;5.50;4.50;;;22.40;91.50;;;;;;5345418;26;20224;-68
2024/04/13 08:32:31;;;;;;;4.00;3.63;;;22.50;90.20;;;;;;5344866;26;20275;-67
2024/04/13 08:34:56;;;;;;;5.37;4.50;;;22.60;88.60;;;;;;5344611;26;20454;-68
2024/04/13 08:37:22;;;;;;;4.70;3.97;;;22.80;86.60;;;;;;5310461;26;20242;-68
2024/04/13 08:39:48;;;;;;;4.90;4.50;;;23.10;84.60;;;;;;5310677;27;20210;-68
2024/04/13 08:42:20;;;;;;;6.30;4.37;;;23.20;83.40;;;;;;5319693;26;20272;-68
2024/04/13 08:44:51;;;;;;;4.40;4.00;;;23.30;81.90;;;;;;5324764;26;20238;-68
2024/04/13 08:47:18;;;;;;;6.20;4.00;;;23.20;80.60;;;;;;5309595;26;20503;-68
2024/04/13 08:49:47;;;;;;;6.13;4.07;;;23.50;79.50;;;;;;5310865;26;20791;-68
2024/04/13 08:52:13;;;;;;;4.47;3.60;;;23.80;79.00;;;;;;5312974;26;20506;-68
2024/04/13 08:54:38;;;;;;;3.80;3.50;;;24.00;77.50;;;;;;5312891;26;20520;-68
2024/04/13 08:57:07;;;;;;;4.20;3.80;;;24.20;76.60;;;;;;5312280;26;20335;-68
2024/04/13 08:59:35;;;;;;;3.30;3.10;;;24.30;74.80;;;;;;5329376;26;20601;-69
2024/04/13 09:02:04;;;;;;;4.90;3.33;;;24.40;74.40;;;;;;5320353;26;20796;-68
2024/04/13 09:04:31;;;;;;;4.03;3.20;;;24.20;72.90;;;;;;5337403;26;20463;-69
2024/04/13 09:06:57;;;;;;;4.30;3.80;;;24.10;72.10;;;;;;5316519;26;20515;-69
2024/04/13 09:09:24;;;;;;;4.20;3.83;;;24.40;71.20;;;;;;5314109;26;21025;-69
2024/04/13 09:11:50;;;;;;;6.00;3.73;;;25.00;68.10;;;;;;5330463;26;20576;-69
2024/04/13 09:14:15;;;;;;;3.90;3.50;;;25.40;64.90;;;;;;5331367;26;20468;-69
2024/04/13 09:16:41;;;;;;;4.50;4.10;;;25.20;63.70;;;;;;5328475;26;20242;-68
2024/04/13 09:19:09;;;;;;;5.20;3.73;;;25.60;63.60;;;;;;5310046;26;20214;-69
2024/04/13 09:21:35;;;;;;;6.40;4.33;;;26.60;60.30;;;;;;5337153;26;20590;-69
2024/04/13 09:24:00;;;;;;;4.80;4.40;;;27.10;58.10;;;;;;5332102;26;20828;-68
2024/04/13 09:26:26;;;;;;;5.67;4.27;;;27.50;56.40;;;;;;5324068;26;20453;-67
2024/04/13 09:28:51;;;;;;;3.93;3.50;;;28.00;53.80;;;;;;5319883;26;20234;-67
2024/04/13 09:31:18;;;;;;;4.00;3.30;;;28.90;51.40;;;;;;5350634;26;20787;-67
2024/04/13 09:33:52;;;;;;;5.63;3.90;;;29.00;48.40;;;;;;5338691;26;20339;-69
2024/04/13 09:36:22;;;;;;;6.43;3.73;;;29.80;45.50;;;;;;5315316;26;20462;-67
2024/04/13 09:38:48;;;;;;;4.87;4.40;;;30.40;42.70;;;;;;5362290;26;20515;-68
2024/04/13 09:41:13;;;;;;;4.30;3.00;;;31.20;40.60;;;;;;5346538;26;20877;-68
2024/04/13 09:43:39;;;;;;;6.53;3.70;;;31.30;38.50;;;;;;5328555;26;20230;-69
2024/04/13 09:46:04;;;;;;;6.13;3.47;;;31.40;36.80;;;;;;5329175;26;20271;-70
2024/04/13 09:48:30;;;;;;;5.53;3.50;;;31.00;37.20;;;;;;5313638;26;20276;-69
2024/04/13 09:50:57;;;;;;;4.33;3.30;;;31.40;35.40;;;;;;5323094;26;20225;-69
2024/04/13 09:53:23;;;;;;;5.80;3.13;;;31.80;33.40;;;;;;5331015;26;20222;-69
2024/04/13 09:55:49;;;;;;;3.13;2.83;;;30.90;33.10;;;;;;5341215;26;20463;-69
2024/04/13 09:58:15;;;;;;;3.13;2.93;;;32.00;32.50;;;;;;5332203;26;20218;-67
2024/04/13 10:00:43;;;;;;;5.23;3.83;;;32.20;30.90;;;;;;5323288;26;20267;-66
2024/04/13 10:03:13;;;;;;;4.77;2.97;;;31.90;29.50;;;;;;5338353;26;20540;-67
2024/04/13 10:05:39;;;;;;;4.90;3.53;;;31.50;30.50;;;;;;5316916;26;21084;-70
2024/04/13 10:08:07;;;;;;;4.57;2.97;;;32.10;29.20;;;;;;5312115;26;20832;-69
2024/04/13 10:10:35;;;;;;;7.63;3.13;;;33.00;28.40;;;;;;5319119;26;20981;-70
2024/04/13 10:13:03;;;;;;;5.50;2.57;;;33.30;28.00;;;;;;5338281;26;20521;-70
2024/04/13 10:15:29;;;;;;;2.80;2.60;;;33.70;27.10;;;;;;5330591;26;20469;-69
2024/04/13 10:17:55;;;;;;;3.23;2.90;;;33.90;26.60;;;;;;5311831;27;20493;-69
2024/04/13 10:20:21;;;;;;;4.63;3.40;;;34.30;26.10;;;;;;5315448;26;20457;-69
2024/04/13 10:22:58;;;;;;;4.47;2.87;;;33.80;25.50;;;;;;5314887;26;20848;-67
2024/04/13 10:25:29;;;;;;;3.43;3.00;;;33.60;25.50;;;;;;5324087;26;20621;-67
2024/04/13 10:28:09;;;;;;;3.73;3.43;;;34.60;25.60;;;;;;5345043;26;20526;-69
2024/04/13 10:30:44;;;;;;;4.00;3.60;;;32.10;25.40;;;;;;5341892;26;20461;-69
2024/04/13 10:33:30;;;;;;;4.27;2.80;;;30.80;27.40;;;;;;5341774;26;20911;-68
2024/04/13 10:36:00;;;;;;;3.30;3.10;;;32.20;26.00;;;;;;5346727;26;20891;-69
2024/04/13 10:38:30;;;;;;;7.30;3.63;;;32.80;25.80;;;;;;5309477;26;20505;-69
2024/04/13 10:40:57;;;;;;;3.47;3.23;;;33.60;24.90;;;;;;5310144;26;20628;-69
2024/04/13 10:43:23;;;;;;;4.23;3.20;;;33.90;24.70;;;;;;5319512;26;20461;-70
2024/04/13 10:45:50;;;;;;;3.73;3.33;;;33.30;24.50;;;;;;5315057;26;20465;-69
2024/04/13 10:48:21;;;;;;;4.43;3.67;;;33.70;24.30;;;;;;5309488;26;21071;-70
2024/04/13 10:50:51;;;;;;;4.13;2.67;;;34.40;24.00;;;;;;5310787;26;20460;-69
2024/04/13 10:53:19;;;;;;;3.80;3.50;;;34.50;23.40;;;;;;5312068;26;20513;-68
2024/04/13 10:55:45;;;;;;;4.90;2.73;;;35.20;22.60;;;;;;5315187;26;20479;-68
2024/04/13 10:58:11;;;;;;;3.20;3.00;;;34.30;21.90;;;;;;5343950;26;20436;-67
2024/04/13 11:00:37;;;;;;;3.43;3.13;;;35.30;22.30;;;;;;5341527;26;20471;-69
2024/04/13 11:03:03;;;;;;;5.73;3.00;;;35.70;21.40;;;;;;5323207;26;20576;-68
2024/04/13 11:05:30;;;;;;;3.20;2.90;;;35.60;21.30;;;;;;5310001;26;20285;-67
2024/04/13 11:07:55;;;;;;;3.93;3.60;;;36.30;20.60;;;;;;5340435;26;20534;-69
2024/04/13 11:10:21;;;;;;;2.80;2.60;;;37.00;19.60;;;;;;5346028;26;20561;-67
2024/04/13 11:12:48;;;;;;;6.50;3.17;;;37.90;18.70;;;;;;5346460;26;20569;-68
2024/04/13 11:15:14;;;;;;;4.43;4.03;;;38.90;18.00;;;;;;5320450;26;20229;-68
2024/04/13 11:17:40;;;;;;;6.30;3.33;;;39.00;17.50;;;;;;5322932;26;21062;-67
2024/04/13 11:20:06;;;;;;;3.40;2.73;;;38.90;17.10;;;;;;5321147;26;20276;-68
2024/04/13 11:22:33;;;;;;;3.73;3.40;;;39.00;16.60;;;;;;5322220;26;20289;-68
2024/04/13 11:24:59;;;;;;;2.60;2.40;;;39.20;16.40;;;;;;5310361;26;20501;-67
2024/04/13 11:27:25;;;;;;;2.63;2.40;;;39.20;15.90;;;;;;5311488;26;20592;-67
2024/04/13 11:29:51;;;;;;;2.57;2.37;;;40.70;15.30;;;;;;5317935;26;20990;-68
2024/04/13 11:32:17;;;;;;;3.97;2.80;;;41.10;14.20;;;;;;5310017;26;20618;-68
2024/04/13 11:34:43;;;;;;;4.40;2.60;;;41.50;13.70;;;;;;5309927;26;20957;-68
2024/04/13 11:37:12;;;;;;;4.83;2.50;;;41.20;13.20;;;;;;5312468;26;20533;-68
2024/04/13 11:39:39;;;;;;;2.70;2.10;;;40.30;13.10;;;;;;5343817;26;20237;-67
2024/04/13 11:42:10;;;;;;;3.03;2.47;;;40.50;13.10;;;;;;5343821;26;21007;-68
2024/04/13 11:44:37;;;;;;;3.00;2.70;;;41.40;13.40;;;;;;5345011;26;20841;-68
2024/04/13 11:47:03;;;;;;;2.53;2.07;;;42.20;12.40;;;;;;5332223;26;21141;-68
2024/04/13 11:49:28;;;;;;;2.87;2.67;;;42.40;11.60;;;;;;5311870;26;20573;-68
2024/04/13 11:51:54;;;;;;;4.37;3.00;;;42.80;11.10;;;;;;5314706;26;20459;-68
2024/04/13 11:54:20;;;;;;;3.77;2.47;;;43.00;11.20;;;;;;5311510;26;20327;-68
2024/04/13 11:56:46;;;;;;;5.20;2.70;;;42.00;10.90;;;;;;5311046;26;20242;-68
2024/04/13 11:59:14;;;;;;;2.97;2.77;;;41.30;11.40;;;;;;5341210;26;20574;-68
2024/04/13 12:01:40;;;;;;;4.50;2.47;;;41.70;11.00;;;;;;5327447;26;20233;-67
2024/04/13 12:04:06;;;;;;;4.07;3.20;;;41.60;11.00;;;;;;5311728;26;20469;-67
2024/04/13 12:06:32;;;;;;;2.60;2.40;;;42.60;10.90;;;;;;5310699;26;20328;-68
2024/04/13 12:08:58;;;;;;;3.30;2.40;;;42.60;9.90;;;;;;5334501;26;20289;-68
2024/04/13 12:11:30;;;;;;;3.47;3.13;;;43.40;10.10;;;;;;5345187;26;20523;-68
2024/04/13 12:13:56;;;;;;;2.70;2.50;;;44.00;9.60;;;;;;5343637;26;20334;-69
2024/04/13 12:16:22;;;;;;;2.77;2.57;;;44.30;9.30;;;;;;5327092;26;21029;-68
2024/04/13 12:18:47;;;;;;;2.33;2.13;;;44.40;9.00;;;;;;5329365;26;20582;-67
2024/04/13 12:21:13;;;;;;;3.50;2.37;;;42.90;9.20;;;;;;5345782;26;20551;-68
2024/04/13 12:23:39;;;;;;;6.10;2.33;;;42.40;9.20;;;;;;5336911;26;20226;-68
2024/04/13 12:26:04;;;;;;;2.50;2.30;;;42.20;9.30;;;;;;5310784;26;20983;-68
2024/04/13 12:28:30;;;;;;;3.43;2.10;;;42.50;9.00;;;;;;5313066;26;20610;-67
2024/04/13 12:30:56;;;;;;;3.10;2.20;;;42.00;9.00;;;;;;5311148;26;20264;-68
2024/04/13 12:33:22;;;;;;;2.33;2.13;;;41.20;8.00;;;;;;5311294;26;20336;-67
2024/04/13 12:35:47;;;;;;;3.03;2.40;;;40.60;8.20;;;;;;5311065;26;20234;-68
2024/04/13 12:38:13;;;;;;;2.33;2.23;;;38.20;8.40;;;;;;5325564;26;20463;-67
2024/04/13 12:40:38;;;;;;;2.20;2.10;;;37.80;9.10;;;;;;5342826;26;20225;-68